sensor_id;sensor_type;location;lat;lon;timestamp;P1;durP1;ratioP1;P2;durP2;ratioP2
4055;SDS011;2043;52.184;8.690;2023-07-31T00:01:54;7.47;;;3.60;;
4055;SDS011;2043;52.184;8.690;2023-07-31T00:04:21;5.70;;;3.60;;
4055;SDS011;2043;52.184;8.690;2023-07-31T00:06:48;6.20;;;3.60;;
4055;SDS011;2043;52.184;8.690;2023-07-31T00:09:15;6.63;;;3.40;;
4055;SDS011;2043;52.184;8.690;2023-07-31T00:11:41;6.33;;;3.30;;
4055;SDS011;2043;52.184;8.690;2023-07-31T00:14:08;5.13;;;3.00;;
4055;SDS011;2043;52.184;8.690;2023-07-31T00:16:35;5.37;;;2.93;;
4055;SDS011;2043;52.184;8.690;2023-07-31T00:19:02;6.20;;;3.10;;
4055;SDS011;2043;52.184;8.690;2023-07-31T00:21:29;6.03;;;3.30;;
4055;SDS011;2043;52.184;8.690;2023-07-31T00:23:56;5.30;;;2.83;;
4055;SDS011;2043;52.184;8.690;2023-07-31T00:26:23;9.03;;;2.80;;
4055;SDS011;2043;52.184;8.690;2023-07-31T00:28:49;5.80;;;2.33;;
4055;SDS011;2043;52.184;8.690;2023-07-31T00:31:16;4.80;;;2.50;;
4055;SDS011;2043;52.184;8.690;2023-07-31T00:33:43;4.67;;;2.50;;
4055;SDS011;2043;52.184;8.690;2023-07-31T00:36:10;5.37;;;2.17;;
4055;SDS011;2043;52.184;8.690;2023-07-31T00:38:36;4.23;;;2.20;;
4055;SDS011;2043;52.184;8.690;2023-07-31T00:41:03;5.30;;;2.30;;
4055;SDS011;2043;52.184;8.690;2023-07-31T00:43:30;5.27;;;2.53;;
4055;SDS011;2043;52.184;8.690;2023-07-31T00:45:57;6.90;;;2.50;;
4055;SDS011;2043;52.184;8.690;2023-07-31T00:48:24;4.30;;;2.37;;
4055;SDS011;2043;52.184;8.690;2023-07-31T00:50:51;4.17;;;2.30;;
4055;SDS011;2043;52.184;8.690;2023-07-31T00:53:18;4.13;;;2.47;;
4055;SDS011;2043;52.184;8.690;2023-07-31T00:55:45;4.20;;;2.27;;
4055;SDS011;2043;52.184;8.690;2023-07-31T00:58:12;7.70;;;2.63;;
4055;SDS011;2043;52.184;8.690;2023-07-31T01:00:39;4.17;;;2.60;;
4055;SDS011;2043;52.184;8.690;2023-07-31T01:03:06;4.20;;;2.57;;
4055;SDS011;2043;52.184;8.690;2023-07-31T01:05:39;4.03;;;2.33;;
4055;SDS011;2043;52.184;8.690;2023-07-31T01:08:24;5.37;;;2.80;;
4055;SDS011;2043;52.184;8.690;2023-07-31T01:12:06;5.77;;;3.43;;
4055;SDS011;2043;52.184;8.690;2023-07-31T01:14:22;5.43;;;3.13;;
4055;SDS011;2043;52.184;8.690;2023-07-31T01:16:49;4.60;;;3.10;;
4055;SDS011;2043;52.184;8.690;2023-07-31T01:19:17;5.83;;;3.57;;
4055;SDS011;2043;52.184;8.690;2023-07-31T01:24:55;8.37;;;3.87;;
4055;SDS011;2043;52.184;8.690;2023-07-31T01:27:44;5.70;;;3.50;;
4055;SDS011;2043;52.184;8.690;2023-07-31T01:30:25;7.93;;;4.03;;
4055;SDS011;2043;52.184;8.690;2023-07-31T01:32:59;5.20;;;3.70;;
4055;SDS011;2043;52.184;8.690;2023-07-31T01:35:33;7.37;;;4.00;;
4055;SDS011;2043;52.184;8.690;2023-07-31T01:38:01;6.50;;;3.87;;
4055;SDS011;2043;52.184;8.690;2023-07-31T01:40:27;5.00;;;3.67;;
4055;SDS011;2043;52.184;8.690;2023-07-31T01:42:54;9.23;;;4.07;;
4055;SDS011;2043;52.184;8.690;2023-07-31T01:45:21;5.10;;;3.93;;
4055;SDS011;2043;52.184;8.690;2023-07-31T01:47:48;5.10;;;3.77;;
4055;SDS011;2043;52.184;8.690;2023-07-31T01:50:15;5.83;;;4.00;;
4055;SDS011;2043;52.184;8.690;2023-07-31T01:52:41;6.13;;;4.23;;
4055;SDS011;2043;52.184;8.690;2023-07-31T01:55:08;6.47;;;4.40;;
4055;SDS011;2043;52.184;8.690;2023-07-31T01:57:36;8.57;;;4.37;;
4055;SDS011;2043;52.184;8.690;2023-07-31T02:00:04;6.07;;;4.10;;
4055;SDS011;2043;52.184;8.690;2023-07-31T02:02:31;4.97;;;3.50;;
4055;SDS011;2043;52.184;8.690;2023-07-31T02:04:58;5.27;;;3.53;;
4055;SDS011;2043;52.184;8.690;2023-07-31T02:07:25;4.37;;;3.03;;
4055;SDS011;2043;52.184;8.690;2023-07-31T02:09:51;8.07;;;3.57;;
4055;SDS011;2043;52.184;8.690;2023-07-31T02:12:18;4.60;;;2.77;;
4055;SDS011;2043;52.184;8.690;2023-07-31T02:14:45;5.57;;;2.80;;
4055;SDS011;2043;52.184;8.690;2023-07-31T02:17:12;7.10;;;3.13;;
4055;SDS011;2043;52.184;8.690;2023-07-31T02:19:39;4.20;;;2.40;;
4055;SDS011;2043;52.184;8.690;2023-07-31T02:22:05;5.37;;;3.07;;
4055;SDS011;2043;52.184;8.690;2023-07-31T02:24:32;5.53;;;2.90;;
4055;SDS011;2043;52.184;8.690;2023-07-31T02:26:59;6.00;;;2.97;;
4055;SDS011;2043;52.184;8.690;2023-07-31T02:29:26;6.60;;;3.27;;
4055;SDS011;2043;52.184;8.690;2023-07-31T02:31:52;4.57;;;2.70;;
4055;SDS011;2043;52.184;8.690;2023-07-31T02:34:19;5.33;;;2.73;;
4055;SDS011;2043;52.184;8.690;2023-07-31T02:36:46;5.30;;;2.77;;
4055;SDS011;2043;52.184;8.690;2023-07-31T02:39:13;7.33;;;2.80;;
4055;SDS011;2043;52.184;8.690;2023-07-31T02:41:39;6.10;;;3.03;;
4055;SDS011;2043;52.184;8.690;2023-07-31T02:44:06;6.27;;;2.60;;
4055;SDS011;2043;52.184;8.690;2023-07-31T02:46:33;4.67;;;2.60;;
4055;SDS011;2043;52.184;8.690;2023-07-31T02:49:00;6.20;;;2.87;;
4055;SDS011;2043;52.184;8.690;2023-07-31T02:51:26;5.53;;;3.10;;
4055;SDS011;2043;52.184;8.690;2023-07-31T02:53:53;6.00;;;2.40;;
4055;SDS011;2043;52.184;8.690;2023-07-31T02:56:20;7.60;;;2.80;;
4055;SDS011;2043;52.184;8.690;2023-07-31T02:58:47;4.80;;;2.80;;
4055;SDS011;2043;52.184;8.690;2023-07-31T03:01:14;9.63;;;2.93;;
4055;SDS011;2043;52.184;8.690;2023-07-31T03:03:41;7.20;;;2.80;;
4055;SDS011;2043;52.184;8.690;2023-07-31T03:06:08;5.63;;;2.70;;
4055;SDS011;2043;52.184;8.690;2023-07-31T03:08:35;10.23;;;2.63;;
4055;SDS011;2043;52.184;8.690;2023-07-31T03:11:02;4.80;;;2.37;;
4055;SDS011;2043;52.184;8.690;2023-07-31T03:13:29;6.97;;;2.47;;
4055;SDS011;2043;52.184;8.690;2023-07-31T03:15:55;6.50;;;2.80;;
4055;SDS011;2043;52.184;8.690;2023-07-31T03:18:22;4.90;;;2.20;;
4055;SDS011;2043;52.184;8.690;2023-07-31T03:20:49;4.83;;;2.43;;
4055;SDS011;2043;52.184;8.690;2023-07-31T03:23:16;18.07;;;3.13;;
4055;SDS011;2043;52.184;8.690;2023-07-31T03:25:54;6.93;;;2.63;;
4055;SDS011;2043;52.184;8.690;2023-07-31T03:28:23;3.80;;;2.00;;
4055;SDS011;2043;52.184;8.690;2023-07-31T03:30:51;9.20;;;1.93;;
4055;SDS011;2043;52.184;8.690;2023-07-31T03:33:18;4.80;;;2.17;;
4055;SDS011;2043;52.184;8.690;2023-07-31T03:35:45;4.43;;;2.00;;
4055;SDS011;2043;52.184;8.690;2023-07-31T03:38:12;3.50;;;1.80;;
4055;SDS011;2043;52.184;8.690;2023-07-31T03:40:39;3.90;;;1.80;;
4055;SDS011;2043;52.184;8.690;2023-07-31T03:43:06;8.03;;;2.10;;
4055;SDS011;2043;52.184;8.690;2023-07-31T03:45:33;3.40;;;1.57;;
4055;SDS011;2043;52.184;8.690;2023-07-31T03:48:00;3.70;;;2.00;;
4055;SDS011;2043;52.184;8.690;2023-07-31T03:50:27;4.63;;;1.90;;
4055;SDS011;2043;52.184;8.690;2023-07-31T03:52:54;4.87;;;2.10;;
4055;SDS011;2043;52.184;8.690;2023-07-31T03:55:20;4.70;;;3.00;;
4055;SDS011;2043;52.184;8.690;2023-07-31T03:57:50;9.90;;;3.40;;
4055;SDS011;2043;52.184;8.690;2023-07-31T04:00:17;8.87;;;4.03;;
4055;SDS011;2043;52.184;8.690;2023-07-31T04:02:43;8.10;;;4.37;;
4055;SDS011;2043;52.184;8.690;2023-07-31T04:05:10;8.17;;;4.73;;
4055;SDS011;2043;52.184;8.690;2023-07-31T04:07:37;10.83;;;5.07;;
4055;SDS011;2043;52.184;8.690;2023-07-31T04:10:04;13.93;;;5.50;;
4055;SDS011;2043;52.184;8.690;2023-07-31T04:12:31;10.97;;;6.40;;
4055;SDS011;2043;52.184;8.690;2023-07-31T04:14:58;15.30;;;8.30;;
4055;SDS011;2043;52.184;8.690;2023-07-31T04:17:24;20.80;;;8.00;;
4055;SDS011;2043;52.184;8.690;2023-07-31T04:19:51;15.67;;;8.33;;
4055;SDS011;2043;52.184;8.690;2023-07-31T04:22:18;14.77;;;8.90;;
4055;SDS011;2043;52.184;8.690;2023-07-31T04:24:45;21.07;;;9.20;;
4055;SDS011;2043;52.184;8.690;2023-07-31T04:27:11;22.23;;;10.80;;
4055;SDS011;2043;52.184;8.690;2023-07-31T04:29:38;18.63;;;10.90;;
4055;SDS011;2043;52.184;8.690;2023-07-31T04:32:06;32.07;;;11.63;;
4055;SDS011;2043;52.184;8.690;2023-07-31T04:34:33;24.93;;;11.47;;
4055;SDS011;2043;52.184;8.690;2023-07-31T04:36:59;21.63;;;12.00;;
4055;SDS011;2043;52.184;8.690;2023-07-31T04:39:26;23.13;;;11.93;;
4055;SDS011;2043;52.184;8.690;2023-07-31T04:41:53;25.70;;;12.63;;
4055;SDS011;2043;52.184;8.690;2023-07-31T04:44:20;23.40;;;12.10;;
4055;SDS011;2043;52.184;8.690;2023-07-31T04:46:46;19.00;;;10.87;;
4055;SDS011;2043;52.184;8.690;2023-07-31T04:49:13;26.60;;;15.80;;
4055;SDS011;2043;52.184;8.690;2023-07-31T04:51:40;20.00;;;9.70;;
4055;SDS011;2043;52.184;8.690;2023-07-31T04:54:07;21.83;;;11.27;;
4055;SDS011;2043;52.184;8.690;2023-07-31T04:56:34;27.53;;;12.33;;
4055;SDS011;2043;52.184;8.690;2023-07-31T04:59:00;34.10;;;12.30;;
4055;SDS011;2043;52.184;8.690;2023-07-31T05:01:27;20.57;;;11.70;;
4055;SDS011;2043;52.184;8.690;2023-07-31T05:03:54;24.90;;;11.90;;
4055;SDS011;2043;52.184;8.690;2023-07-31T05:06:21;29.90;;;13.30;;
4055;SDS011;2043;52.184;8.690;2023-07-31T05:08:47;25.70;;;11.93;;
4055;SDS011;2043;52.184;8.690;2023-07-31T05:11:14;19.10;;;10.87;;
4055;SDS011;2043;52.184;8.690;2023-07-31T05:13:41;25.03;;;12.27;;
4055;SDS011;2043;52.184;8.690;2023-07-31T05:16:08;30.00;;;13.00;;
4055;SDS011;2043;52.184;8.690;2023-07-31T05:18:34;26.40;;;11.47;;
4055;SDS011;2043;52.184;8.690;2023-07-31T05:21:01;28.03;;;11.10;;
4055;SDS011;2043;52.184;8.690;2023-07-31T05:23:28;24.70;;;10.87;;
4055;SDS011;2043;52.184;8.690;2023-07-31T05:25:55;21.33;;;12.37;;
4055;SDS011;2043;52.184;8.690;2023-07-31T05:28:28;24.00;;;12.27;;
4055;SDS011;2043;52.184;8.690;2023-07-31T05:30:58;27.80;;;11.43;;
4055;SDS011;2043;52.184;8.690;2023-07-31T05:33:26;29.70;;;11.20;;
4055;SDS011;2043;52.184;8.690;2023-07-31T05:35:53;31.63;;;10.60;;
4055;SDS011;2043;52.184;8.690;2023-07-31T05:38:20;30.57;;;11.63;;
4055;SDS011;2043;52.184;8.690;2023-07-31T05:40:47;17.63;;;8.80;;
4055;SDS011;2043;52.184;8.690;2023-07-31T05:43:14;25.40;;;11.50;;
4055;SDS011;2043;52.184;8.690;2023-07-31T05:45:44;24.10;;;11.33;;
4055;SDS011;2043;52.184;8.690;2023-07-31T05:48:11;26.60;;;10.67;;
4055;SDS011;2043;52.184;8.690;2023-07-31T05:50:37;31.57;;;10.20;;
4055;SDS011;2043;52.184;8.690;2023-07-31T05:53:06;22.93;;;10.73;;
4055;SDS011;2043;52.184;8.690;2023-07-31T05:55:34;31.73;;;11.13;;
4055;SDS011;2043;52.184;8.690;2023-07-31T05:58:01;30.00;;;10.13;;
4055;SDS011;2043;52.184;8.690;2023-07-31T06:00:28;25.17;;;9.53;;
4055;SDS011;2043;52.184;8.690;2023-07-31T06:02:54;28.37;;;9.13;;
4055;SDS011;2043;52.184;8.690;2023-07-31T06:05:21;23.33;;;9.20;;
4055;SDS011;2043;52.184;8.690;2023-07-31T06:07:48;28.27;;;9.50;;
4055;SDS011;2043;52.184;8.690;2023-07-31T06:10:15;23.93;;;8.80;;
4055;SDS011;2043;52.184;8.690;2023-07-31T06:12:42;17.10;;;8.27;;
4055;SDS011;2043;52.184;8.690;2023-07-31T06:15:08;19.70;;;8.00;;
4055;SDS011;2043;52.184;8.690;2023-07-31T06:17:35;21.30;;;8.70;;
4055;SDS011;2043;52.184;8.690;2023-07-31T06:20:03;27.57;;;9.40;;
4055;SDS011;2043;52.184;8.690;2023-07-31T06:22:33;32.93;;;9.10;;
4055;SDS011;2043;52.184;8.690;2023-07-31T06:24:59;16.03;;;7.33;;
4055;SDS011;2043;52.184;8.690;2023-07-31T06:27:26;25.17;;;8.20;;
4055;SDS011;2043;52.184;8.690;2023-07-31T06:29:53;19.17;;;7.40;;
4055;SDS011;2043;52.184;8.690;2023-07-31T06:32:20;20.37;;;7.73;;
4055;SDS011;2043;52.184;8.690;2023-07-31T06:34:46;18.67;;;8.37;;
4055;SDS011;2043;52.184;8.690;2023-07-31T06:37:13;22.60;;;8.67;;
4055;SDS011;2043;52.184;8.690;2023-07-31T06:39:40;21.90;;;7.50;;
4055;SDS011;2043;52.184;8.690;2023-07-31T06:42:07;22.40;;;9.17;;
4055;SDS011;2043;52.184;8.690;2023-07-31T06:44:34;22.03;;;8.50;;
4055;SDS011;2043;52.184;8.690;2023-07-31T06:47:00;21.37;;;7.87;;
4055;SDS011;2043;52.184;8.690;2023-07-31T06:49:27;27.20;;;8.30;;
4055;SDS011;2043;52.184;8.690;2023-07-31T06:51:54;19.17;;;8.17;;
4055;SDS011;2043;52.184;8.690;2023-07-31T06:54:21;16.40;;;7.67;;
4055;SDS011;2043;52.184;8.690;2023-07-31T06:56:48;15.57;;;7.33;;
4055;SDS011;2043;52.184;8.690;2023-07-31T06:59:14;23.80;;;7.50;;
4055;SDS011;2043;52.184;8.690;2023-07-31T07:01:41;32.30;;;8.70;;
4055;SDS011;2043;52.184;8.690;2023-07-31T07:04:08;19.07;;;8.27;;
4055;SDS011;2043;52.184;8.690;2023-07-31T07:06:35;24.33;;;8.13;;
4055;SDS011;2043;52.184;8.690;2023-07-31T07:09:02;24.90;;;8.60;;
4055;SDS011;2043;52.184;8.690;2023-07-31T07:11:29;22.10;;;7.50;;
4055;SDS011;2043;52.184;8.690;2023-07-31T07:13:56;30.53;;;8.07;;
4055;SDS011;2043;52.184;8.690;2023-07-31T07:16:22;20.73;;;7.93;;
4055;SDS011;2043;52.184;8.690;2023-07-31T07:18:49;21.73;;;8.03;;
4055;SDS011;2043;52.184;8.690;2023-07-31T07:21:30;16.73;;;7.70;;
4055;SDS011;2043;52.184;8.690;2023-07-31T07:23:57;23.33;;;8.67;;
4055;SDS011;2043;52.184;8.690;2023-07-31T07:26:23;21.17;;;8.00;;
4055;SDS011;2043;52.184;8.690;2023-07-31T07:28:50;17.87;;;7.13;;
4055;SDS011;2043;52.184;8.690;2023-07-31T07:31:17;22.37;;;8.07;;
4055;SDS011;2043;52.184;8.690;2023-07-31T07:33:44;20.60;;;7.70;;
4055;SDS011;2043;52.184;8.690;2023-07-31T07:36:10;18.63;;;7.37;;
4055;SDS011;2043;52.184;8.690;2023-07-31T07:38:39;19.20;;;7.37;;
4055;SDS011;2043;52.184;8.690;2023-07-31T07:41:05;21.33;;;7.60;;
4055;SDS011;2043;52.184;8.690;2023-07-31T07:43:32;18.87;;;7.20;;
4055;SDS011;2043;52.184;8.690;2023-07-31T07:45:59;22.83;;;8.07;;
4055;SDS011;2043;52.184;8.690;2023-07-31T07:48:26;20.40;;;7.63;;
4055;SDS011;2043;52.184;8.690;2023-07-31T07:50:52;20.83;;;7.63;;
4055;SDS011;2043;52.184;8.690;2023-07-31T07:53:19;12.70;;;7.17;;
4055;SDS011;2043;52.184;8.690;2023-07-31T07:55:46;22.40;;;8.37;;
4055;SDS011;2043;52.184;8.690;2023-07-31T07:58:13;18.47;;;8.13;;
4055;SDS011;2043;52.184;8.690;2023-07-31T08:00:39;15.33;;;7.80;;
4055;SDS011;2043;52.184;8.690;2023-07-31T08:03:06;18.70;;;8.70;;
4055;SDS011;2043;52.184;8.690;2023-07-31T08:05:33;20.73;;;8.67;;
4055;SDS011;2043;52.184;8.690;2023-07-31T08:08:00;24.77;;;9.80;;
4055;SDS011;2043;52.184;8.690;2023-07-31T08:10:27;18.17;;;9.03;;
4055;SDS011;2043;52.184;8.690;2023-07-31T08:12:54;21.10;;;8.67;;
4055;SDS011;2043;52.184;8.690;2023-07-31T08:15:21;14.80;;;8.23;;
4055;SDS011;2043;52.184;8.690;2023-07-31T08:17:47;23.40;;;8.03;;
4055;SDS011;2043;52.184;8.690;2023-07-31T08:20:14;17.23;;;8.27;;
4055;SDS011;2043;52.184;8.690;2023-07-31T08:22:41;19.47;;;9.07;;
4055;SDS011;2043;52.184;8.690;2023-07-31T08:25:08;16.43;;;7.30;;
4055;SDS011;2043;52.184;8.690;2023-07-31T08:27:34;14.53;;;7.37;;
4055;SDS011;2043;52.184;8.690;2023-07-31T08:30:01;17.33;;;7.40;;
4055;SDS011;2043;52.184;8.690;2023-07-31T08:32:28;13.60;;;8.03;;
4055;SDS011;2043;52.184;8.690;2023-07-31T08:34:55;16.73;;;7.40;;
4055;SDS011;2043;52.184;8.690;2023-07-31T08:37:22;13.60;;;6.70;;
4055;SDS011;2043;52.184;8.690;2023-07-31T08:39:49;11.93;;;6.30;;
4055;SDS011;2043;52.184;8.690;2023-07-31T08:42:15;9.93;;;6.00;;
4055;SDS011;2043;52.184;8.690;2023-07-31T08:44:43;10.93;;;5.80;;
4055;SDS011;2043;52.184;8.690;2023-07-31T08:47:10;11.67;;;5.80;;
4055;SDS011;2043;52.184;8.690;2023-07-31T08:49:38;7.80;;;4.80;;
4055;SDS011;2043;52.184;8.690;2023-07-31T08:52:06;11.80;;;5.73;;
4055;SDS011;2043;52.184;8.690;2023-07-31T08:54:33;7.50;;;4.63;;
4055;SDS011;2043;52.184;8.690;2023-07-31T08:57:00;8.47;;;4.83;;
4055;SDS011;2043;52.184;8.690;2023-07-31T08:59:30;7.80;;;4.50;;
4055;SDS011;2043;52.184;8.690;2023-07-31T09:02:05;9.20;;;4.30;;
4055;SDS011;2043;52.184;8.690;2023-07-31T09:04:34;8.87;;;4.33;;
4055;SDS011;2043;52.184;8.690;2023-07-31T09:07:01;10.73;;;5.47;;
4055;SDS011;2043;52.184;8.690;2023-07-31T09:09:30;9.07;;;4.80;;
4055;SDS011;2043;52.184;8.690;2023-07-31T09:11:58;12.40;;;5.60;;
4055;SDS011;2043;52.184;8.690;2023-07-31T09:14:25;8.53;;;4.63;;
4055;SDS011;2043;52.184;8.690;2023-07-31T09:16:56;13.00;;;5.00;;
4055;SDS011;2043;52.184;8.690;2023-07-31T09:19:29;9.53;;;4.90;;
4055;SDS011;2043;52.184;8.690;2023-07-31T09:22:00;6.77;;;4.53;;
4055;SDS011;2043;52.184;8.690;2023-07-31T09:24:31;7.70;;;4.47;;
4055;SDS011;2043;52.184;8.690;2023-07-31T09:26:59;7.73;;;4.60;;
4055;SDS011;2043;52.184;8.690;2023-07-31T09:29:27;7.23;;;3.73;;
4055;SDS011;2043;52.184;8.690;2023-07-31T09:31:55;6.53;;;4.20;;
4055;SDS011;2043;52.184;8.690;2023-07-31T09:34:37;8.33;;;4.40;;
4055;SDS011;2043;52.184;8.690;2023-07-31T09:37:07;9.80;;;3.97;;
4055;SDS011;2043;52.184;8.690;2023-07-31T09:39:45;6.77;;;3.80;;
4055;SDS011;2043;52.184;8.690;2023-07-31T09:42:12;8.00;;;4.67;;
4055;SDS011;2043;52.184;8.690;2023-07-31T09:44:40;8.07;;;4.77;;
4055;SDS011;2043;52.184;8.690;2023-07-31T09:47:20;8.73;;;3.97;;
4055;SDS011;2043;52.184;8.690;2023-07-31T09:49:50;7.83;;;4.20;;
4055;SDS011;2043;52.184;8.690;2023-07-31T09:52:17;6.97;;;4.23;;
4055;SDS011;2043;52.184;8.690;2023-07-31T09:54:44;7.47;;;4.27;;
4055;SDS011;2043;52.184;8.690;2023-07-31T09:57:11;9.80;;;4.60;;
4055;SDS011;2043;52.184;8.690;2023-07-31T09:59:38;7.03;;;4.07;;
4055;SDS011;2043;52.184;8.690;2023-07-31T10:02:05;10.30;;;4.30;;
4055;SDS011;2043;52.184;8.690;2023-07-31T10:04:41;7.87;;;3.60;;
4055;SDS011;2043;52.184;8.690;2023-07-31T10:07:12;6.23;;;3.60;;
4055;SDS011;2043;52.184;8.690;2023-07-31T10:09:40;8.40;;;3.80;;
4055;SDS011;2043;52.184;8.690;2023-07-31T10:12:07;11.77;;;3.87;;
4055;SDS011;2043;52.184;8.690;2023-07-31T10:14:36;5.60;;;3.70;;
4055;SDS011;2043;52.184;8.690;2023-07-31T10:17:05;6.90;;;3.77;;
4055;SDS011;2043;52.184;8.690;2023-07-31T10:19:33;7.70;;;4.00;;
4055;SDS011;2043;52.184;8.690;2023-07-31T10:22:02;7.70;;;4.50;;
4055;SDS011;2043;52.184;8.690;2023-07-31T10:24:29;6.70;;;3.87;;
4055;SDS011;2043;52.184;8.690;2023-07-31T10:26:57;9.40;;;4.77;;
4055;SDS011;2043;52.184;8.690;2023-07-31T10:29:26;7.13;;;3.80;;
4055;SDS011;2043;52.184;8.690;2023-07-31T10:31:56;7.97;;;3.47;;
4055;SDS011;2043;52.184;8.690;2023-07-31T10:34:24;7.03;;;4.03;;
4055;SDS011;2043;52.184;8.690;2023-07-31T10:37:19;4.37;;;2.40;;
4055;SDS011;2043;52.184;8.690;2023-07-31T10:39:57;5.57;;;3.00;;
4055;SDS011;2043;52.184;8.690;2023-07-31T10:42:35;5.27;;;3.23;;
4055;SDS011;2043;52.184;8.690;2023-07-31T10:48:03;5.23;;;2.90;;
4055;SDS011;2043;52.184;8.690;2023-07-31T10:50:38;5.20;;;2.60;;
4055;SDS011;2043;52.184;8.690;2023-07-31T10:53:23;4.43;;;2.70;;
4055;SDS011;2043;52.184;8.690;2023-07-31T10:55:58;4.20;;;2.23;;
4055;SDS011;2043;52.184;8.690;2023-07-31T10:58:26;3.77;;;2.10;;
4055;SDS011;2043;52.184;8.690;2023-07-31T11:00:57;3.70;;;2.20;;
4055;SDS011;2043;52.184;8.690;2023-07-31T11:03:26;5.60;;;2.50;;
4055;SDS011;2043;52.184;8.690;2023-07-31T11:06:06;3.50;;;1.90;;
4055;SDS011;2043;52.184;8.690;2023-07-31T11:08:33;4.73;;;2.43;;
4055;SDS011;2043;52.184;8.690;2023-07-31T11:11:14;3.50;;;2.00;;
4055;SDS011;2043;52.184;8.690;2023-07-31T11:16:15;3.40;;;2.00;;
4055;SDS011;2043;52.184;8.690;2023-07-31T11:18:44;5.70;;;2.33;;
4055;SDS011;2043;52.184;8.690;2023-07-31T11:21:12;6.30;;;2.30;;
4055;SDS011;2043;52.184;8.690;2023-07-31T11:23:40;5.97;;;2.60;;
4055;SDS011;2043;52.184;8.690;2023-07-31T11:26:07;4.23;;;2.30;;
4055;SDS011;2043;52.184;8.690;2023-07-31T11:28:34;5.03;;;2.17;;
4055;SDS011;2043;52.184;8.690;2023-07-31T11:31:02;3.70;;;2.30;;
4055;SDS011;2043;52.184;8.690;2023-07-31T11:33:29;4.70;;;2.67;;
4055;SDS011;2043;52.184;8.690;2023-07-31T11:35:56;4.00;;;2.07;;
4055;SDS011;2043;52.184;8.690;2023-07-31T11:40:54;4.13;;;2.00;;
4055;SDS011;2043;52.184;8.690;2023-07-31T11:43:25;4.17;;;2.37;;
4055;SDS011;2043;52.184;8.690;2023-07-31T11:45:54;3.10;;;1.77;;
4055;SDS011;2043;52.184;8.690;2023-07-31T11:48:26;4.50;;;2.30;;
4055;SDS011;2043;52.184;8.690;2023-07-31T11:51:03;3.70;;;2.30;;
4055;SDS011;2043;52.184;8.690;2023-07-31T11:53:33;3.97;;;2.37;;
4055;SDS011;2043;52.184;8.690;2023-07-31T11:56:18;3.57;;;2.23;;
4055;SDS011;2043;52.184;8.690;2023-07-31T11:58:46;3.60;;;2.30;;
4055;SDS011;2043;52.184;8.690;2023-07-31T12:01:15;8.30;;;2.10;;
4055;SDS011;2043;52.184;8.690;2023-07-31T12:03:44;3.37;;;2.13;;
4055;SDS011;2043;52.184;8.690;2023-07-31T12:06:12;3.10;;;1.97;;
4055;SDS011;2043;52.184;8.690;2023-07-31T12:08:39;5.60;;;2.57;;
4055;SDS011;2043;52.184;8.690;2023-07-31T12:11:07;3.93;;;2.40;;
4055;SDS011;2043;52.184;8.690;2023-07-31T12:13:37;3.40;;;2.00;;
4055;SDS011;2043;52.184;8.690;2023-07-31T12:16:04;3.90;;;2.00;;
4055;SDS011;2043;52.184;8.690;2023-07-31T12:18:35;4.00;;;2.30;;
4055;SDS011;2043;52.184;8.690;2023-07-31T12:21:05;3.70;;;2.17;;
4055;SDS011;2043;52.184;8.690;2023-07-31T12:23:34;3.83;;;1.80;;
4055;SDS011;2043;52.184;8.690;2023-07-31T12:31:16;4.80;;;2.33;;
4055;SDS011;2043;52.184;8.690;2023-07-31T12:33:48;3.37;;;1.90;;
4055;SDS011;2043;52.184;8.690;2023-07-31T12:36:23;3.63;;;1.80;;
4055;SDS011;2043;52.184;8.690;2023-07-31T12:38:50;3.40;;;1.63;;
4055;SDS011;2043;52.184;8.690;2023-07-31T12:41:18;4.37;;;1.80;;
4055;SDS011;2043;52.184;8.690;2023-07-31T12:43:45;3.50;;;1.60;;
4055;SDS011;2043;52.184;8.690;2023-07-31T12:46:12;2.70;;;1.67;;
4055;SDS011;2043;52.184;8.690;2023-07-31T12:48:39;3.37;;;1.90;;
4055;SDS011;2043;52.184;8.690;2023-07-31T12:51:06;6.10;;;1.60;;
4055;SDS011;2043;52.184;8.690;2023-07-31T12:53:34;2.90;;;1.60;;
4055;SDS011;2043;52.184;8.690;2023-07-31T12:56:01;2.77;;;1.73;;
4055;SDS011;2043;52.184;8.690;2023-07-31T12:58:28;3.20;;;1.87;;
4055;SDS011;2043;52.184;8.690;2023-07-31T13:00:55;2.93;;;1.90;;
4055;SDS011;2043;52.184;8.690;2023-07-31T13:03:22;3.60;;;1.93;;
4055;SDS011;2043;52.184;8.690;2023-07-31T13:05:50;4.07;;;2.53;;
4055;SDS011;2043;52.184;8.690;2023-07-31T13:08:18;12.40;;;2.80;;
4055;SDS011;2043;52.184;8.690;2023-07-31T13:10:45;4.33;;;3.17;;
4055;SDS011;2043;52.184;8.690;2023-07-31T13:13:12;6.10;;;3.90;;
4055;SDS011;2043;52.184;8.690;2023-07-31T13:15:39;6.80;;;4.10;;
4055;SDS011;2043;52.184;8.690;2023-07-31T13:18:06;6.27;;;4.50;;
4055;SDS011;2043;52.184;8.690;2023-07-31T13:20:33;8.70;;;4.90;;
4055;SDS011;2043;52.184;8.690;2023-07-31T13:22:59;10.00;;;5.73;;
4055;SDS011;2043;52.184;8.690;2023-07-31T13:25:26;8.40;;;5.80;;
4055;SDS011;2043;52.184;8.690;2023-07-31T13:27:54;11.20;;;5.93;;
4055;SDS011;2043;52.184;8.690;2023-07-31T13:30:22;8.70;;;5.60;;
4055;SDS011;2043;52.184;8.690;2023-07-31T13:32:49;10.27;;;7.20;;
4055;SDS011;2043;52.184;8.690;2023-07-31T13:35:16;13.03;;;7.27;;
4055;SDS011;2043;52.184;8.690;2023-07-31T13:37:43;13.03;;;8.40;;
4055;SDS011;2043;52.184;8.690;2023-07-31T13:40:10;19.70;;;8.50;;
4055;SDS011;2043;52.184;8.690;2023-07-31T13:42:37;14.10;;;8.67;;
4055;SDS011;2043;52.184;8.690;2023-07-31T13:45:04;12.30;;;8.17;;
4055;SDS011;2043;52.184;8.690;2023-07-31T13:47:33;12.40;;;8.17;;
4055;SDS011;2043;52.184;8.690;2023-07-31T13:50:01;12.60;;;8.03;;
4055;SDS011;2043;52.184;8.690;2023-07-31T13:52:28;11.60;;;7.23;;
4055;SDS011;2043;52.184;8.690;2023-07-31T13:54:54;10.83;;;7.93;;
4055;SDS011;2043;52.184;8.690;2023-07-31T13:57:21;12.07;;;7.60;;
4055;SDS011;2043;52.184;8.690;2023-07-31T13:59:49;9.20;;;7.20;;
4055;SDS011;2043;52.184;8.690;2023-07-31T14:02:16;9.43;;;6.63;;
4055;SDS011;2043;52.184;8.690;2023-07-31T14:04:43;9.63;;;6.90;;
4055;SDS011;2043;52.184;8.690;2023-07-31T14:07:09;11.73;;;6.87;;
4055;SDS011;2043;52.184;8.690;2023-07-31T14:09:37;8.30;;;5.93;;
4055;SDS011;2043;52.184;8.690;2023-07-31T14:12:04;7.53;;;6.00;;
4055;SDS011;2043;52.184;8.690;2023-07-31T14:14:31;7.20;;;5.40;;
4055;SDS011;2043;52.184;8.690;2023-07-31T14:17:00;9.20;;;5.80;;
4055;SDS011;2043;52.184;8.690;2023-07-31T14:19:28;7.17;;;5.43;;
4055;SDS011;2043;52.184;8.690;2023-07-31T14:21:55;7.40;;;5.10;;
4055;SDS011;2043;52.184;8.690;2023-07-31T14:24:39;9.60;;;6.03;;
4055;SDS011;2043;52.184;8.690;2023-07-31T14:27:06;15.50;;;6.43;;
4055;SDS011;2043;52.184;8.690;2023-07-31T14:29:35;10.73;;;5.33;;
4055;SDS011;2043;52.184;8.690;2023-07-31T14:32:02;15.00;;;5.87;;
4055;SDS011;2043;52.184;8.690;2023-07-31T14:34:29;8.90;;;6.33;;
4055;SDS011;2043;52.184;8.690;2023-07-31T14:36:56;7.00;;;5.10;;
4055;SDS011;2043;52.184;8.690;2023-07-31T14:39:23;8.83;;;5.63;;
4055;SDS011;2043;52.184;8.690;2023-07-31T14:41:50;17.60;;;6.50;;
4055;SDS011;2043;52.184;8.690;2023-07-31T14:44:17;9.63;;;6.30;;
4055;SDS011;2043;52.184;8.690;2023-07-31T14:46:44;7.53;;;5.80;;
4055;SDS011;2043;52.184;8.690;2023-07-31T14:49:11;9.40;;;6.57;;
4055;SDS011;2043;52.184;8.690;2023-07-31T14:51:38;10.60;;;5.70;;
4055;SDS011;2043;52.184;8.690;2023-07-31T14:54:04;7.77;;;5.60;;
4055;SDS011;2043;52.184;8.690;2023-07-31T14:56:31;9.13;;;6.20;;
4055;SDS011;2043;52.184;8.690;2023-07-31T14:58:58;7.50;;;5.93;;
4055;SDS011;2043;52.184;8.690;2023-07-31T15:01:25;7.83;;;6.00;;
4055;SDS011;2043;52.184;8.690;2023-07-31T15:03:52;9.20;;;5.50;;
4055;SDS011;2043;52.184;8.690;2023-07-31T15:06:19;8.40;;;6.00;;
4055;SDS011;2043;52.184;8.690;2023-07-31T15:08:45;8.80;;;6.10;;
4055;SDS011;2043;52.184;8.690;2023-07-31T15:11:15;8.00;;;6.70;;
4055;SDS011;2043;52.184;8.690;2023-07-31T15:13:42;15.43;;;6.97;;
4055;SDS011;2043;52.184;8.690;2023-07-31T15:16:09;9.70;;;6.50;;
4055;SDS011;2043;52.184;8.690;2023-07-31T15:18:36;9.13;;;6.60;;
4055;SDS011;2043;52.184;8.690;2023-07-31T15:21:03;7.97;;;6.53;;
4055;SDS011;2043;52.184;8.690;2023-07-31T15:23:32;9.67;;;6.60;;
4055;SDS011;2043;52.184;8.690;2023-07-31T15:25:59;8.90;;;6.17;;
4055;SDS011;2043;52.184;8.690;2023-07-31T15:28:26;8.23;;;6.30;;
4055;SDS011;2043;52.184;8.690;2023-07-31T15:30:53;9.73;;;6.13;;